TUI813 GVAC-EGKK
Flight info
| Callsign | TUI813 |
|---|---|
| Flight time | 5h 0m |
| Altitude | 39000 |
| Route | DIMKI1A DIMKI DCT IPERA N873 LIMAL/N0495F380 DCT UDATI DCT ODEGI DCT LOMAS/N0492F400 DCT GDV DCT SAMAR DCT BEXAL DCT ORSOS DCT ASMOV DCT AGADO DCT KORUL DCT FEJAC DCT JSY/N0492F340 DCT REVTU UP88 VASUX |
| Aircraft | B789/H-SDE1E2E3FGHIJ2J3J4J5M1RWXY/LB1D1 |
Departure
| Time | 2026-04-25 10:59 |
|---|---|
| Airport | Amílcar Cabral International Airport (GVAC) |
Arrival
| Time | 2026-04-25 15:59 |
|---|---|
| Airport | London Gatwick Airport (EGKK) |
| Time | Latitude | Longitude | Altitude | Speed | Heading |
|---|---|---|---|---|---|
| 2026-04-25 10:47 | 16.73497 | -22.94505 | 204 ft | 0 kts | 90° |
| 2026-04-25 10:52 | 16.73498 | -22.94518 | 207 ft | 2 kts | 90° |
| 2026-04-25 10:52 | 16.73498 | -22.94535 | 207 ft | 2 kts | 90° |
| 2026-04-25 10:52 | 16.73498 | -22.94552 | 195 ft | 2 kts | 90° |
| 2026-04-25 10:53 | 16.73497 | -22.94569 | 203 ft | 2 kts | 78° |
| 2026-04-25 10:53 | 16.73491 | -22.94585 | 205 ft | 2 kts | 54° |
| 2026-04-25 10:53 | 16.73478 | -22.94593 | 210 ft | 2 kts | 2° |
| 2026-04-25 10:53 | 16.73469 | -22.94593 | 206 ft | 1 kts | 353° |
| 2026-04-25 10:56 | 16.73478 | -22.94594 | 210 ft | 6 kts | 353° |
| 2026-04-25 10:56 | 16.73573 | -22.94606 | 198 ft | 21 kts | 341° |
| 2026-04-25 10:56 | 16.73621 | -22.94672 | 205 ft | 1 kts | 255° |
| 2026-04-25 10:56 | 16.73605 | -22.94684 | 207 ft | 8 kts | 209° |
| 2026-04-25 10:57 | 16.73498 | -22.94696 | 195 ft | 24 kts | 179° |
| 2026-04-25 10:57 | 16.73268 | -22.94689 | 196 ft | 42 kts | 178° |
| 2026-04-25 10:57 | 16.72945 | -22.94690 | 197 ft | 49 kts | 179° |
| 2026-04-25 10:57 | 16.72635 | -22.94686 | 203 ft | 44 kts | 179° |
| 2026-04-25 10:58 | 16.72432 | -22.94693 | 204 ft | 14 kts | 203° |
| 2026-04-25 10:58 | 16.72402 | -22.94771 | 197 ft | 15 kts | 269° |
| 2026-04-25 10:58 | 16.72454 | -22.94883 | 207 ft | 18 kts | 338° |
| 2026-04-25 10:58 | 16.72625 | -22.94889 | 197 ft | 38 kts | 0° |
| 2026-04-25 10:59 | 16.73054 | -22.94891 | 210 ft | 85 kts | 359° |
| 2026-04-25 10:59 | 16.73795 | -22.94896 | 199 ft | 127 kts | 360° |
| 2026-04-25 10:59 | 16.74763 | -22.94899 | 403 ft | 139 kts | 5° |
| 2026-04-25 10:59 | 16.75726 | -22.94886 | 965 ft | 147 kts | 3° |
| 2026-04-25 11:00 | 16.76852 | -22.94916 | 1389 ft | 175 kts | 1° |
| 2026-04-25 11:00 | 16.78156 | -22.94928 | 2005 ft | 200 kts | 2° |
| 2026-04-25 11:00 | 16.79634 | -22.94935 | 2517 ft | 227 kts | 2° |
| 2026-04-25 11:00 | 16.81293 | -22.94944 | 3318 ft | 245 kts | 0° |
| 2026-04-25 11:01 | 16.82992 | -22.94960 | 4633 ft | 249 kts | 358° |
| 2026-04-25 11:01 | 16.84782 | -22.94976 | 5567 ft | 263 kts | 356° |
| 2026-04-25 11:01 | 16.86631 | -22.94989 | 6642 ft | 268 kts | 355° |
| 2026-04-25 11:01 | 16.88524 | -22.95002 | 7571 ft | 277 kts | 355° |
| 2026-04-25 11:02 | 16.90474 | -22.95015 | 8513 ft | 284 kts | 356° |
| 2026-04-25 11:02 | 16.92444 | -22.94637 | 9399 ft | 299 kts | 20° |
| 2026-04-25 11:02 | 16.94274 | -22.93524 | 10275 ft | 309 kts | 31° |
| 2026-04-25 11:02 | 16.96048 | -22.92227 | 11243 ft | 312 kts | 33° |
| 2026-04-25 11:03 | 16.97816 | -22.90899 | 12224 ft | 314 kts | 32° |
| 2026-04-25 11:03 | 16.99623 | -22.89593 | 13199 ft | 317 kts | 31° |
| 2026-04-25 11:03 | 17.01446 | -22.88297 | 13940 ft | 330 kts | 31° |
| 2026-04-25 11:03 | 17.03408 | -22.86890 | 14331 ft | 349 kts | 32° |
| 2026-04-25 11:04 | 17.05403 | -22.85438 | 15246 ft | 351 kts | 32° |
| 2026-04-25 11:04 | 17.07425 | -22.83972 | 16036 ft | 357 kts | 32° |
| 2026-04-25 11:04 | 17.09481 | -22.82491 | 16862 ft | 361 kts | 32° |
| 2026-04-25 11:04 | 17.10886 | -22.81478 | 17399 ft | 365 kts | 32° |
| 2026-04-25 11:05 | 17.13702 | -22.79442 | 18448 ft | 371 kts | 32° |
| 2026-04-25 11:05 | 17.15805 | -22.77920 | 19163 ft | 373 kts | 32° |
| 2026-04-25 11:05 | 17.17965 | -22.76359 | 19640 ft | 386 kts | 32° |
| 2026-04-25 11:05 | 17.20191 | -22.74750 | 20284 ft | 390 kts | 32° |
| 2026-04-25 11:06 | 17.22427 | -22.73129 | 21010 ft | 392 kts | 31° |
| 2026-04-25 11:06 | 17.24677 | -22.71499 | 21677 ft | 395 kts | 31° |
| 2026-04-25 11:06 | 17.26948 | -22.69856 | 22350 ft | 398 kts | 30° |
| 2026-04-25 11:06 | 17.29232 | -22.68203 | 23006 ft | 401 kts | 30° |
| 2026-04-25 11:07 | 17.31532 | -22.66536 | 23637 ft | 404 kts | 30° |
| 2026-04-25 11:07 | 17.33854 | -22.64853 | 24146 ft | 407 kts | 30° |
| 2026-04-25 11:07 | 17.36192 | -22.63158 | 24647 ft | 410 kts | 30° |
| 2026-04-25 11:07 | 17.38547 | -22.61451 | 25146 ft | 413 kts | 30° |
| 2026-04-25 11:08 | 17.40920 | -22.59729 | 25625 ft | 417 kts | 29° |
| 2026-04-25 11:08 | 17.43312 | -22.57993 | 26088 ft | 420 kts | 29° |
| 2026-04-25 11:08 | 17.45725 | -22.56241 | 26579 ft | 423 kts | 29° |
| 2026-04-25 11:08 | 17.48153 | -22.54478 | 27029 ft | 426 kts | 29° |
| 2026-04-25 11:09 | 17.50601 | -22.52700 | 27484 ft | 430 kts | 29° |
| 2026-04-25 11:09 | 17.53065 | -22.50909 | 27929 ft | 433 kts | 29° |
| 2026-04-25 11:09 | 17.55549 | -22.49104 | 28357 ft | 436 kts | 29° |
| 2026-04-25 11:09 | 17.58068 | -22.47274 | 28517 ft | 446 kts | 29° |
| 2026-04-25 11:10 | 17.60652 | -22.45398 | 28694 ft | 455 kts | 29° |
| 2026-04-25 11:10 | 17.62373 | -22.44141 | 29001 ft | 455 kts | 29° |
| 2026-04-25 11:10 | 17.65870 | -22.41592 | 29513 ft | 460 kts | 28° |
| 2026-04-25 11:10 | 17.68506 | -22.39675 | 29864 ft | 463 kts | 28° |
| 2026-04-25 11:11 | 17.71189 | -22.37726 | 29862 ft | 474 kts | 29° |
| 2026-04-25 11:11 | 17.73828 | -22.35789 | 31095 ft | 448 kts | 28° |
| 2026-04-25 11:11 | 17.76368 | -22.33927 | 31650 ft | 449 kts | 28° |
| 2026-04-25 11:11 | 17.78964 | -22.32055 | 31860 ft | 454 kts | 28° |
| 2026-04-25 11:12 | 17.81568 | -22.30164 | 32182 ft | 457 kts | 28° |
| 2026-04-25 11:12 | 17.84182 | -22.28246 | 32465 ft | 460 kts | 28° |
| 2026-04-25 11:12 | 17.86813 | -22.26319 | 32762 ft | 463 kts | 28° |
| 2026-04-25 11:12 | 17.89487 | -22.24429 | 33036 ft | 462 kts | 23° |
| 2026-04-25 11:13 | 17.92274 | -22.22730 | 33255 ft | 465 kts | 24° |
| 2026-04-25 11:13 | 17.95073 | -22.21012 | 33534 ft | 467 kts | 24° |
| 2026-04-25 11:13 | 17.97884 | -22.19277 | 33798 ft | 471 kts | 24° |
| 2026-04-25 11:13 | 18.00715 | -22.17533 | 34058 ft | 473 kts | 24° |
| 2026-04-25 11:14 | 18.03563 | -22.15781 | 34288 ft | 475 kts | 24° |
| 2026-04-25 11:14 | 18.06422 | -22.14023 | 34524 ft | 478 kts | 24° |
| 2026-04-25 11:14 | 18.09298 | -22.12249 | 34761 ft | 480 kts | 24° |
| 2026-04-25 11:14 | 18.12181 | -22.10472 | 34988 ft | 482 kts | 24° |
| 2026-04-25 11:15 | 18.15079 | -22.08686 | 35211 ft | 484 kts | 24° |
| 2026-04-25 11:15 | 18.17988 | -22.06892 | 35430 ft | 486 kts | 24° |
| 2026-04-25 11:15 | 18.20908 | -22.05090 | 35645 ft | 488 kts | 24° |
| 2026-04-25 11:15 | 18.23840 | -22.03280 | 35846 ft | 489 kts | 24° |
| 2026-04-25 11:16 | 18.29732 | -21.99641 | 36252 ft | 493 kts | 24° |
| 2026-04-25 11:16 | 18.32695 | -21.97810 | 36451 ft | 495 kts | 24° |
| 2026-04-25 11:16 | 18.35666 | -21.95973 | 36622 ft | 496 kts | 24° |
| 2026-04-25 11:17 | 18.38650 | -21.94127 | 36812 ft | 498 kts | 24° |
| 2026-04-25 11:17 | 18.41601 | -21.92301 | 36997 ft | 499 kts | 24° |
| 2026-04-25 11:17 | 18.44600 | -21.90445 | 37165 ft | 501 kts | 24° |
| 2026-04-25 11:17 | 18.47609 | -21.88582 | 37325 ft | 503 kts | 25° |
| 2026-04-25 11:18 | 18.50629 | -21.86711 | 37445 ft | 505 kts | 25° |
| 2026-04-25 11:18 | 18.53666 | -21.84829 | 37597 ft | 507 kts | 25° |
| 2026-04-25 11:18 | 18.56700 | -21.82946 | 37837 ft | 506 kts | 25° |
| 2026-04-25 11:18 | 18.59737 | -21.81061 | 38066 ft | 506 kts | 25° |
| 2026-04-25 11:19 | 18.62768 | -21.79182 | 38310 ft | 505 kts | 25° |
| 2026-04-25 11:19 | 18.65799 | -21.77301 | 38525 ft | 505 kts | 25° |
| 2026-04-25 11:19 | 18.68825 | -21.75421 | 38721 ft | 505 kts | 25° |
| 2026-04-25 11:19 | 18.71852 | -21.73539 | 38910 ft | 505 kts | 25° |
| 2026-04-25 11:20 | 18.74878 | -21.71659 | 39016 ft | 506 kts | 25° |
| 2026-04-25 11:20 | 18.77919 | -21.69770 | 39014 ft | 508 kts | 25° |
| 2026-04-25 11:20 | 18.83983 | -21.65992 | 39010 ft | 504 kts | 25° |
| 2026-04-25 11:21 | 18.90005 | -21.62245 | 39016 ft | 501 kts | 24° |
| 2026-04-25 11:21 | 18.96002 | -21.58506 | 39012 ft | 501 kts | 24° |
| 2026-04-25 11:22 | 19.00996 | -21.55392 | 39015 ft | 502 kts | 24° |
| 2026-04-25 11:22 | 19.08028 | -21.51002 | 39015 ft | 503 kts | 24° |
| 2026-04-25 11:23 | 19.14049 | -21.47238 | 39018 ft | 503 kts | 24° |
| 2026-04-25 11:23 | 19.20070 | -21.43473 | 39019 ft | 503 kts | 24° |
| 2026-04-25 11:24 | 19.26092 | -21.39704 | 39026 ft | 503 kts | 24° |
| 2026-04-25 11:24 | 19.32069 | -21.35959 | 39031 ft | 503 kts | 24° |
| 2026-04-25 11:25 | 19.38097 | -21.32180 | 39034 ft | 504 kts | 24° |
| 2026-04-25 11:25 | 19.44121 | -21.28399 | 39023 ft | 504 kts | 24° |
| 2026-04-25 11:26 | 19.50156 | -21.24608 | 39027 ft | 505 kts | 24° |
| 2026-04-25 11:26 | 19.56200 | -21.20808 | 39030 ft | 505 kts | 24° |
| 2026-04-25 11:27 | 19.62249 | -21.17002 | 39031 ft | 506 kts | 24° |
| 2026-04-25 11:27 | 19.67319 | -21.13809 | 39033 ft | 506 kts | 24° |
| 2026-04-25 11:28 | 19.74348 | -21.09379 | 39030 ft | 506 kts | 24° |
| 2026-04-25 11:28 | 19.80400 | -21.05560 | 39031 ft | 506 kts | 24° |
| 2026-04-25 11:29 | 19.86451 | -21.01740 | 39030 ft | 506 kts | 24° |
| 2026-04-25 11:29 | 19.92511 | -20.97909 | 39033 ft | 507 kts | 24° |
| 2026-04-25 11:30 | 19.98576 | -20.94072 | 39038 ft | 508 kts | 24° |
| 2026-04-25 11:30 | 20.04642 | -20.90231 | 39039 ft | 507 kts | 24° |
| 2026-04-25 11:31 | 20.10706 | -20.86388 | 39036 ft | 508 kts | 24° |
| 2026-04-25 11:31 | 20.16782 | -20.82534 | 39028 ft | 508 kts | 24° |
| 2026-04-25 11:32 | 20.22856 | -20.78678 | 39032 ft | 509 kts | 24° |
| 2026-04-25 11:32 | 20.28935 | -20.74814 | 39036 ft | 509 kts | 24° |
| 2026-04-25 11:33 | 20.35017 | -20.70946 | 39034 ft | 510 kts | 24° |
| 2026-04-25 11:33 | 20.41065 | -20.67090 | 39037 ft | 510 kts | 24° |
| 2026-04-25 11:34 | 20.46164 | -20.63830 | 39035 ft | 510 kts | 24° |
| 2026-04-25 11:34 | 20.53249 | -20.59303 | 39038 ft | 511 kts | 24° |
| 2026-04-25 11:35 | 20.59355 | -20.55394 | 39037 ft | 512 kts | 24° |
| 2026-04-25 11:35 | 20.64471 | -20.52118 | 39035 ft | 511 kts | 24° |
| 2026-04-25 11:36 | 20.70527 | -20.48236 | 39035 ft | 511 kts | 24° |
| 2026-04-25 11:36 | 20.76615 | -20.44329 | 39040 ft | 511 kts | 23° |
| 2026-04-25 11:37 | 20.82709 | -20.40415 | 39040 ft | 511 kts | 23° |
| 2026-04-25 11:37 | 20.88813 | -20.36491 | 39035 ft | 512 kts | 23° |
| 2026-04-25 11:38 | 20.94919 | -20.32562 | 39038 ft | 512 kts | 23° |
| 2026-04-25 11:38 | 21.01024 | -20.28629 | 39039 ft | 512 kts | 23° |
| 2026-04-25 11:39 | 21.07129 | -20.24694 | 39041 ft | 512 kts | 23° |
| 2026-04-25 11:39 | 21.13240 | -20.20750 | 39040 ft | 513 kts | 23° |
| 2026-04-25 11:40 | 21.19350 | -20.16802 | 39040 ft | 512 kts | 23° |
| 2026-04-25 11:40 | 21.25413 | -20.12883 | 39039 ft | 512 kts | 23° |
| 2026-04-25 11:41 | 21.31558 | -20.08905 | 39040 ft | 513 kts | 23° |
| 2026-04-25 11:41 | 21.37665 | -20.04948 | 39039 ft | 513 kts | 23° |
| 2026-04-25 11:42 | 21.43767 | -20.00990 | 39025 ft | 512 kts | 23° |
| 2026-04-25 11:42 | 21.49822 | -19.97060 | 39036 ft | 512 kts | 23° |
| 2026-04-25 11:43 | 21.55921 | -19.93097 | 39036 ft | 512 kts | 23° |
| 2026-04-25 11:43 | 21.62015 | -19.89133 | 39040 ft | 512 kts | 23° |
| 2026-04-25 11:44 | 21.68103 | -19.85168 | 39038 ft | 512 kts | 23° |
| 2026-04-25 11:44 | 21.74192 | -19.81200 | 39043 ft | 512 kts | 22° |
| 2026-04-25 11:45 | 21.80287 | -19.77224 | 39044 ft | 512 kts | 22° |
| 2026-04-25 11:45 | 21.86370 | -19.73251 | 39042 ft | 511 kts | 22° |
| 2026-04-25 11:46 | 21.92455 | -19.69274 | 39038 ft | 512 kts | 22° |
| 2026-04-25 11:46 | 21.98536 | -19.65293 | 39045 ft | 511 kts | 22° |
| 2026-04-25 11:47 | 22.04609 | -19.61316 | 39043 ft | 511 kts | 22° |
| 2026-04-25 11:47 | 22.10684 | -19.57332 | 39046 ft | 511 kts | 22° |
| 2026-04-25 11:48 | 22.16760 | -19.53343 | 39044 ft | 511 kts | 22° |
| 2026-04-25 11:48 | 22.22829 | -19.49354 | 39045 ft | 511 kts | 22° |
| 2026-04-25 11:49 | 22.28902 | -19.45360 | 39044 ft | 511 kts | 22° |
| 2026-04-25 11:49 | 22.34974 | -19.41361 | 39045 ft | 511 kts | 22° |
| 2026-04-25 11:50 | 22.41038 | -19.37364 | 39031 ft | 511 kts | 22° |
| 2026-04-25 11:50 | 22.47058 | -19.33391 | 39039 ft | 510 kts | 22° |
| 2026-04-25 11:51 | 22.53112 | -19.29393 | 39046 ft | 510 kts | 22° |
| 2026-04-25 11:51 | 22.59165 | -19.25390 | 39045 ft | 510 kts | 22° |
| 2026-04-25 11:52 | 22.65218 | -19.21383 | 39042 ft | 510 kts | 22° |
| 2026-04-25 11:52 | 22.71277 | -19.17369 | 39044 ft | 510 kts | 21° |
| 2026-04-25 11:53 | 22.77323 | -19.13357 | 39048 ft | 509 kts | 21° |
| 2026-04-25 11:53 | 22.83368 | -19.09345 | 39047 ft | 509 kts | 21° |
| 2026-04-25 11:54 | 22.89412 | -19.05326 | 39048 ft | 510 kts | 21° |
| 2026-04-25 11:55 | 22.98438 | -18.99319 | 39052 ft | 509 kts | 21° |
| 2026-04-25 11:55 | 23.04464 | -18.95302 | 39050 ft | 508 kts | 21° |
| 2026-04-25 11:56 | 23.10479 | -18.91290 | 39053 ft | 507 kts | 21° |
| 2026-04-25 11:56 | 23.16495 | -18.87272 | 39054 ft | 508 kts | 21° |
| 2026-04-25 11:57 | 23.22526 | -18.83240 | 39052 ft | 509 kts | 21° |
| 2026-04-25 11:57 | 23.28559 | -18.79201 | 39053 ft | 509 kts | 21° |
| 2026-04-25 11:58 | 23.34590 | -18.75160 | 39058 ft | 509 kts | 21° |
| 2026-04-25 11:58 | 23.40622 | -18.71114 | 39051 ft | 509 kts | 21° |
| 2026-04-25 11:59 | 23.46650 | -18.67067 | 39056 ft | 509 kts | 21° |
| 2026-04-25 11:59 | 23.52678 | -18.63014 | 39055 ft | 509 kts | 21° |
| 2026-04-25 12:00 | 23.61726 | -18.56924 | 39055 ft | 510 kts | 21° |
| 2026-04-25 12:01 | 23.70789 | -18.50813 | 39062 ft | 511 kts | 21° |
| 2026-04-25 12:01 | 23.76839 | -18.46728 | 39048 ft | 511 kts | 21° |
| 2026-04-25 12:02 | 23.85917 | -18.40590 | 39061 ft | 512 kts | 21° |
| 2026-04-25 12:02 | 23.91972 | -18.36490 | 39058 ft | 512 kts | 21° |
| 2026-04-25 12:03 | 23.97983 | -18.32415 | 39066 ft | 511 kts | 21° |
| 2026-04-25 12:03 | 24.04025 | -18.28316 | 39067 ft | 511 kts | 21° |
| 2026-04-25 12:04 | 24.10059 | -18.24216 | 39066 ft | 511 kts | 21° |
| 2026-04-25 12:04 | 24.16096 | -18.20110 | 39066 ft | 510 kts | 21° |
| 2026-04-25 12:05 | 24.22129 | -18.16004 | 39066 ft | 510 kts | 21° |
| 2026-04-25 12:05 | 24.28156 | -18.11895 | 39068 ft | 510 kts | 21° |
| 2026-04-25 12:06 | 24.34191 | -18.07777 | 39063 ft | 510 kts | 21° |
| 2026-04-25 12:06 | 24.40213 | -18.03663 | 39068 ft | 510 kts | 21° |
| 2026-04-25 12:07 | 24.46243 | -17.99539 | 39073 ft | 511 kts | 21° |
| 2026-04-25 12:07 | 24.52274 | -17.95408 | 39072 ft | 511 kts | 21° |
| 2026-04-25 12:08 | 24.58307 | -17.91273 | 39072 ft | 511 kts | 21° |
| 2026-04-25 12:08 | 24.64339 | -17.87133 | 39072 ft | 511 kts | 21° |
| 2026-04-25 12:09 | 24.70336 | -17.83012 | 39068 ft | 512 kts | 21° |
| 2026-04-25 12:09 | 24.76368 | -17.78862 | 39061 ft | 511 kts | 21° |
| 2026-04-25 12:10 | 24.82395 | -17.74712 | 39068 ft | 511 kts | 21° |
| 2026-04-25 12:10 | 24.88427 | -17.70553 | 39071 ft | 512 kts | 21° |
| 2026-04-25 12:11 | 24.94458 | -17.66389 | 39073 ft | 511 kts | 21° |
| 2026-04-25 12:11 | 25.00480 | -17.62227 | 39073 ft | 510 kts | 21° |
| 2026-04-25 12:12 | 25.05482 | -17.58763 | 39075 ft | 511 kts | 21° |
| 2026-04-25 12:12 | 25.12514 | -17.53884 | 39076 ft | 511 kts | 22° |
| 2026-04-25 12:13 | 25.18537 | -17.49703 | 39072 ft | 512 kts | 22° |
| 2026-04-25 12:13 | 25.24561 | -17.45514 | 39076 ft | 512 kts | 22° |
| 2026-04-25 12:14 | 25.30580 | -17.41325 | 39075 ft | 512 kts | 22° |
| 2026-04-25 12:14 | 25.36605 | -17.37126 | 39076 ft | 512 kts | 22° |
| 2026-04-25 12:15 | 25.42627 | -17.32924 | 39078 ft | 512 kts | 22° |
| 2026-04-25 12:15 | 25.48647 | -17.28719 | 39082 ft | 512 kts | 22° |
| 2026-04-25 12:16 | 25.54665 | -17.24510 | 39080 ft | 512 kts | 22° |
| 2026-04-25 12:16 | 25.60681 | -17.20297 | 39080 ft | 511 kts | 22° |
| 2026-04-25 12:17 | 25.66649 | -17.16113 | 39078 ft | 511 kts | 22° |
| 2026-04-25 12:17 | 25.72692 | -17.11871 | 39078 ft | 510 kts | 22° |
| 2026-04-25 12:18 | 25.78645 | -17.07687 | 39083 ft | 510 kts | 22° |
| 2026-04-25 12:18 | 25.84639 | -17.03469 | 39083 ft | 510 kts | 22° |
| 2026-04-25 12:19 | 25.93622 | -16.97139 | 39082 ft | 510 kts | 22° |
| 2026-04-25 12:20 | 25.99611 | -16.92912 | 39085 ft | 510 kts | 22° |
| 2026-04-25 12:20 | 26.05599 | -16.88681 | 39078 ft | 509 kts | 22° |
| 2026-04-25 12:21 | 26.11577 | -16.84451 | 39072 ft | 509 kts | 22° |
| 2026-04-25 12:21 | 26.17552 | -16.80218 | 39078 ft | 509 kts | 23° |
| 2026-04-25 12:22 | 26.23525 | -16.75987 | 39084 ft | 509 kts | 22° |
| 2026-04-25 12:22 | 26.29500 | -16.71761 | 39082 ft | 509 kts | 23° |
| 2026-04-25 12:23 | 26.34460 | -16.68242 | 39081 ft | 509 kts | 23° |
| 2026-04-25 12:23 | 26.41443 | -16.63288 | 39083 ft | 509 kts | 23° |
| 2026-04-25 12:24 | 26.47373 | -16.59072 | 39083 ft | 508 kts | 23° |
| 2026-04-25 12:24 | 26.52366 | -16.55521 | 39083 ft | 507 kts | 23° |
| 2026-04-25 12:25 | 26.58313 | -16.51284 | 39080 ft | 506 kts | 23° |
| 2026-04-25 12:25 | 26.65214 | -16.46363 | 39084 ft | 506 kts | 23° |
| 2026-04-25 12:26 | 26.70148 | -16.42839 | 39083 ft | 506 kts | 23° |
| 2026-04-25 12:26 | 26.76117 | -16.38570 | 39076 ft | 506 kts | 23° |
| 2026-04-25 12:27 | 26.82048 | -16.34326 | 39081 ft | 506 kts | 24° |
| 2026-04-25 12:27 | 26.87969 | -16.30080 | 39082 ft | 505 kts | 24° |
| 2026-04-25 12:28 | 26.93852 | -16.25854 | 39074 ft | 505 kts | 24° |
| 2026-04-25 12:28 | 26.99763 | -16.21595 | 39082 ft | 505 kts | 24° |
| 2026-04-25 12:29 | 27.05680 | -16.17331 | 39081 ft | 505 kts | 24° |
| 2026-04-25 12:29 | 27.11584 | -16.13068 | 39076 ft | 505 kts | 24° |
| 2026-04-25 12:30 | 27.17489 | -16.08801 | 39079 ft | 505 kts | 24° |
| 2026-04-25 12:30 | 27.23391 | -16.04529 | 39080 ft | 504 kts | 24° |
| 2026-04-25 12:31 | 27.29286 | -16.00257 | 39077 ft | 504 kts | 24° |
| 2026-04-25 12:31 | 27.35180 | -15.95981 | 39079 ft | 504 kts | 24° |
| 2026-04-25 12:32 | 27.41068 | -15.91702 | 39077 ft | 504 kts | 24° |
| 2026-04-25 12:32 | 27.46959 | -15.87418 | 39078 ft | 503 kts | 25° |
| 2026-04-25 12:33 | 27.52838 | -15.83136 | 39075 ft | 503 kts | 25° |
| 2026-04-25 12:33 | 27.58720 | -15.78846 | 39073 ft | 504 kts | 25° |
| 2026-04-25 12:34 | 27.64603 | -15.74550 | 39075 ft | 504 kts | 25° |
| 2026-04-25 12:34 | 27.70440 | -15.70281 | 39079 ft | 503 kts | 25° |
| 2026-04-25 12:35 | 27.76314 | -15.65981 | 39081 ft | 503 kts | 25° |
| 2026-04-25 12:35 | 27.82177 | -15.61683 | 39085 ft | 502 kts | 25° |
| 2026-04-25 12:36 | 27.88036 | -15.57384 | 39078 ft | 503 kts | 26° |
| 2026-04-25 12:36 | 27.93909 | -15.53066 | 39081 ft | 504 kts | 26° |
| 2026-04-25 12:37 | 27.99785 | -15.48742 | 39079 ft | 504 kts | 26° |
| 2026-04-25 12:37 | 28.05667 | -15.44415 | 39086 ft | 502 kts | 24° |
| 2026-04-25 12:37 | 28.08741 | -15.42645 | 39096 ft | 492 kts | 13° |
| 2026-04-25 12:38 | 28.11957 | -15.41424 | 39086 ft | 487 kts | 10° |
| 2026-04-25 12:38 | 28.18422 | -15.39155 | 39075 ft | 486 kts | 10° |
| 2026-04-25 12:39 | 28.24886 | -15.36901 | 39085 ft | 486 kts | 10° |
| 2026-04-25 12:39 | 28.31351 | -15.34633 | 39089 ft | 486 kts | 10° |
| 2026-04-25 12:40 | 28.37824 | -15.32366 | 39088 ft | 487 kts | 11° |
| 2026-04-25 12:40 | 28.44299 | -15.30090 | 39094 ft | 488 kts | 11° |
| 2026-04-25 12:41 | 28.50790 | -15.27809 | 39084 ft | 488 kts | 11° |
| 2026-04-25 12:41 | 28.57236 | -15.25539 | 39097 ft | 488 kts | 11° |
| 2026-04-25 12:42 | 28.63726 | -15.23252 | 39088 ft | 489 kts | 11° |
| 2026-04-25 12:42 | 28.70218 | -15.20960 | 39093 ft | 488 kts | 11° |
| 2026-04-25 12:43 | 28.76708 | -15.18666 | 39085 ft | 488 kts | 11° |
| 2026-04-25 12:43 | 28.86439 | -15.15221 | 39091 ft | 488 kts | 12° |
| 2026-04-25 12:44 | 28.92925 | -15.12922 | 39089 ft | 488 kts | 12° |
| 2026-04-25 12:45 | 29.02662 | -15.09464 | 39094 ft | 489 kts | 12° |
| 2026-04-25 12:45 | 29.12406 | -15.05996 | 39091 ft | 489 kts | 12° |
| 2026-04-25 12:46 | 29.18898 | -15.03682 | 39088 ft | 488 kts | 12° |
| 2026-04-25 12:46 | 29.25372 | -15.01371 | 39092 ft | 487 kts | 12° |
| 2026-04-25 12:47 | 29.31839 | -14.99060 | 39093 ft | 486 kts | 12° |
| 2026-04-25 12:47 | 29.38304 | -14.96747 | 39094 ft | 487 kts | 12° |
| 2026-04-25 12:48 | 29.44779 | -14.94426 | 39095 ft | 487 kts | 12° |
| 2026-04-25 12:48 | 29.51252 | -14.92104 | 39095 ft | 488 kts | 13° |
| 2026-04-25 12:49 | 29.57736 | -14.89774 | 39091 ft | 489 kts | 13° |
| 2026-04-25 12:49 | 29.64232 | -14.87437 | 39099 ft | 489 kts | 13° |
| 2026-04-25 12:50 | 29.70726 | -14.85097 | 39096 ft | 489 kts | 13° |
| 2026-04-25 12:50 | 29.77225 | -14.82753 | 39097 ft | 490 kts | 13° |
| 2026-04-25 12:51 | 29.83725 | -14.80404 | 39098 ft | 489 kts | 13° |
| 2026-04-25 12:51 | 29.90218 | -14.78055 | 39094 ft | 489 kts | 13° |
| 2026-04-25 12:52 | 29.96709 | -14.75704 | 39089 ft | 489 kts | 13° |
| 2026-04-25 12:52 | 30.03217 | -14.73344 | 39092 ft | 490 kts | 13° |
| 2026-04-25 12:53 | 30.09730 | -14.70977 | 39096 ft | 491 kts | 13° |
| 2026-04-25 12:53 | 30.16247 | -14.68607 | 39096 ft | 491 kts | 13° |
| 2026-04-25 12:54 | 30.22768 | -14.66232 | 39099 ft | 492 kts | 14° |
| 2026-04-25 12:54 | 30.29302 | -14.63848 | 39101 ft | 492 kts | 14° |
| 2026-04-25 12:55 | 30.34727 | -14.61866 | 39099 ft | 492 kts | 14° |
| 2026-04-25 12:55 | 30.42347 | -14.59080 | 39100 ft | 491 kts | 14° |
| 2026-04-25 12:56 | 30.48811 | -14.56712 | 39101 ft | 491 kts | 14° |
| 2026-04-25 12:56 | 30.55323 | -14.54323 | 39095 ft | 491 kts | 14° |
| 2026-04-25 12:57 | 30.61838 | -14.51930 | 39094 ft | 491 kts | 14° |
| 2026-04-25 12:57 | 30.68390 | -14.49520 | 39097 ft | 490 kts | 14° |
| 2026-04-25 12:58 | 30.74848 | -14.47142 | 39099 ft | 491 kts | 14° |
| 2026-04-25 12:58 | 30.81374 | -14.44734 | 39100 ft | 492 kts | 14° |
| 2026-04-25 12:59 | 30.87907 | -14.42321 | 39102 ft | 493 kts | 14° |
| 2026-04-25 12:59 | 30.94235 | -14.39211 | 39103 ft | 495 kts | 22° |
| 2026-04-25 13:00 | 30.98405 | -14.36919 | 39102 ft | 495 kts | 22° |
| 2026-04-25 13:00 | 31.06692 | -14.32353 | 39093 ft | 495 kts | 22° |
| 2026-04-25 13:01 | 31.12910 | -14.28922 | 39101 ft | 494 kts | 23° |
| 2026-04-25 13:01 | 31.19124 | -14.25488 | 39094 ft | 494 kts | 23° |
| 2026-04-25 13:02 | 31.25338 | -14.22048 | 39097 ft | 494 kts | 23° |
| 2026-04-25 13:02 | 31.31555 | -14.18602 | 39096 ft | 495 kts | 23° |
| 2026-04-25 13:03 | 31.37745 | -14.15165 | 39100 ft | 496 kts | 23° |
| 2026-04-25 13:03 | 31.43982 | -14.11698 | 39097 ft | 496 kts | 23° |
| 2026-04-25 13:04 | 31.50215 | -14.08227 | 39106 ft | 496 kts | 23° |
| 2026-04-25 13:04 | 31.56443 | -14.04754 | 39101 ft | 495 kts | 23° |
| 2026-04-25 13:05 | 31.62663 | -14.01281 | 39103 ft | 494 kts | 23° |
| 2026-04-25 13:05 | 31.68860 | -13.97815 | 39098 ft | 493 kts | 24° |
| 2026-04-25 13:06 | 31.75058 | -13.94343 | 39101 ft | 494 kts | 24° |
| 2026-04-25 13:06 | 31.81271 | -13.90858 | 39106 ft | 494 kts | 24° |
| 2026-04-25 13:07 | 31.87470 | -13.87376 | 39104 ft | 494 kts | 24° |
| 2026-04-25 13:07 | 31.93674 | -13.83885 | 39101 ft | 494 kts | 24° |
| 2026-04-25 13:08 | 31.99880 | -13.80388 | 39105 ft | 494 kts | 24° |
| 2026-04-25 13:08 | 32.06082 | -13.76889 | 39108 ft | 494 kts | 24° |
| 2026-04-25 13:09 | 32.12244 | -13.73406 | 39105 ft | 494 kts | 24° |
| 2026-04-25 13:09 | 32.18445 | -13.69896 | 39107 ft | 494 kts | 24° |
| 2026-04-25 13:10 | 32.24651 | -13.66378 | 39102 ft | 495 kts | 24° |
| 2026-04-25 13:10 | 32.30863 | -13.62850 | 39103 ft | 495 kts | 24° |
| 2026-04-25 13:11 | 32.37067 | -13.59323 | 39104 ft | 495 kts | 24° |
| 2026-04-25 13:11 | 32.42222 | -13.56387 | 39105 ft | 495 kts | 24° |
| 2026-04-25 13:12 | 32.48416 | -13.52856 | 39101 ft | 493 kts | 24° |
| 2026-04-25 13:12 | 32.53550 | -13.49924 | 39108 ft | 493 kts | 24° |
| 2026-04-25 13:13 | 32.60766 | -13.45797 | 39107 ft | 492 kts | 24° |
| 2026-04-25 13:13 | 32.66933 | -13.42264 | 39108 ft | 492 kts | 24° |
| 2026-04-25 13:14 | 32.73102 | -13.38725 | 39103 ft | 492 kts | 24° |
| 2026-04-25 13:14 | 32.79272 | -13.35179 | 39103 ft | 492 kts | 24° |
| 2026-04-25 13:15 | 32.85438 | -13.31631 | 39107 ft | 493 kts | 24° |
| 2026-04-25 13:15 | 32.91608 | -13.28074 | 39105 ft | 492 kts | 25° |
| 2026-04-25 13:16 | 32.97774 | -13.24515 | 39106 ft | 492 kts | 25° |
| 2026-04-25 13:16 | 33.03929 | -13.20956 | 39108 ft | 491 kts | 25° |
| 2026-04-25 13:17 | 33.10079 | -13.17394 | 39107 ft | 491 kts | 25° |
| 2026-04-25 13:17 | 33.16222 | -13.13831 | 39104 ft | 490 kts | 25° |
| 2026-04-25 13:18 | 33.22316 | -13.10291 | 39109 ft | 490 kts | 25° |
| 2026-04-25 13:18 | 33.28446 | -13.06724 | 39106 ft | 490 kts | 25° |
| 2026-04-25 13:19 | 33.34577 | -13.03152 | 39104 ft | 490 kts | 25° |
| 2026-04-25 13:19 | 33.39711 | -13.00155 | 39102 ft | 490 kts | 25° |
| 2026-04-25 13:20 | 33.46828 | -12.95995 | 39105 ft | 490 kts | 25° |
| 2026-04-25 13:20 | 33.52949 | -12.92412 | 39110 ft | 490 kts | 25° |
| 2026-04-25 13:21 | 33.59073 | -12.88820 | 39113 ft | 490 kts | 25° |
| 2026-04-25 13:21 | 33.65189 | -12.85228 | 39106 ft | 489 kts | 25° |
| 2026-04-25 13:22 | 33.71292 | -12.81637 | 39107 ft | 488 kts | 25° |
| 2026-04-25 13:23 | 33.80436 | -12.76247 | 39110 ft | 488 kts | 25° |
| 2026-04-25 13:23 | 33.86531 | -12.72647 | 39104 ft | 488 kts | 25° |
| 2026-04-25 13:24 | 33.92627 | -12.69041 | 39114 ft | 488 kts | 25° |
| 2026-04-25 13:24 | 33.98717 | -12.65432 | 39110 ft | 488 kts | 25° |
| 2026-04-25 13:25 | 34.04808 | -12.61816 | 39111 ft | 488 kts | 25° |
| 2026-04-25 13:25 | 34.10896 | -12.58198 | 39108 ft | 488 kts | 25° |
| 2026-04-25 13:26 | 34.16934 | -12.54602 | 39113 ft | 487 kts | 25° |
| 2026-04-25 13:26 | 34.23014 | -12.50976 | 39110 ft | 488 kts | 25° |
| 2026-04-25 13:27 | 34.29101 | -12.47340 | 39112 ft | 488 kts | 25° |
| 2026-04-25 13:27 | 34.35184 | -12.43701 | 39114 ft | 488 kts | 25° |
| 2026-04-25 13:28 | 34.41264 | -12.40057 | 39113 ft | 488 kts | 25° |
| 2026-04-25 13:28 | 34.47342 | -12.36409 | 39114 ft | 488 kts | 25° |
| 2026-04-25 13:29 | 34.53421 | -12.32753 | 39114 ft | 488 kts | 25° |
| 2026-04-25 13:29 | 34.59495 | -12.29095 | 39114 ft | 486 kts | 25° |
| 2026-04-25 13:30 | 34.68581 | -12.23613 | 39114 ft | 487 kts | 25° |
| 2026-04-25 13:31 | 34.77680 | -12.18107 | 39117 ft | 487 kts | 25° |
| 2026-04-25 13:31 | 34.83747 | -12.14430 | 39119 ft | 487 kts | 25° |
| 2026-04-25 13:32 | 34.89810 | -12.10748 | 39120 ft | 487 kts | 25° |
| 2026-04-25 13:32 | 34.95865 | -12.07065 | 39115 ft | 486 kts | 25° |
| 2026-04-25 13:33 | 35.01928 | -12.03372 | 39113 ft | 487 kts | 25° |
| 2026-04-25 13:33 | 35.07990 | -11.99672 | 39118 ft | 487 kts | 25° |
| 2026-04-25 13:34 | 35.14053 | -11.95966 | 39119 ft | 487 kts | 25° |
| 2026-04-25 13:34 | 35.20120 | -11.92251 | 39116 ft | 488 kts | 25° |
| 2026-04-25 13:35 | 35.26182 | -11.88533 | 39119 ft | 487 kts | 25° |
| 2026-04-25 13:35 | 35.32236 | -11.84813 | 39120 ft | 486 kts | 25° |
| 2026-04-25 13:36 | 35.38245 | -11.81116 | 39118 ft | 487 kts | 25° |
| 2026-04-25 13:36 | 35.44291 | -11.77389 | 39118 ft | 486 kts | 25° |
| 2026-04-25 13:37 | 35.50375 | -11.73632 | 39102 ft | 487 kts | 25° |
| 2026-04-25 13:37 | 35.56418 | -11.69894 | 39107 ft | 485 kts | 25° |
| 2026-04-25 13:38 | 35.62449 | -11.66158 | 39113 ft | 486 kts | 25° |
| 2026-04-25 13:38 | 35.68445 | -11.62436 | 39112 ft | 486 kts | 25° |
| 2026-04-25 13:39 | 35.74478 | -11.58685 | 39114 ft | 486 kts | 25° |
| 2026-04-25 13:39 | 35.80502 | -11.54934 | 39122 ft | 485 kts | 25° |
| 2026-04-25 13:40 | 35.86520 | -11.51180 | 39121 ft | 485 kts | 25° |
| 2026-04-25 13:40 | 35.92549 | -11.47412 | 39122 ft | 486 kts | 24° |
| 2026-04-25 13:41 | 35.98692 | -11.44036 | 39144 ft | 481 kts | 14° |
| 2026-04-25 13:41 | 36.05092 | -11.41531 | 39134 ft | 482 kts | 15° |
| 2026-04-25 13:42 | 36.11492 | -11.39016 | 39125 ft | 482 kts | 15° |
| 2026-04-25 13:42 | 36.17882 | -11.36501 | 39126 ft | 482 kts | 15° |
| 2026-04-25 13:43 | 36.24267 | -11.33983 | 39125 ft | 481 kts | 15° |
| 2026-04-25 13:43 | 36.30638 | -11.31467 | 39130 ft | 480 kts | 15° |
| 2026-04-25 13:44 | 36.37011 | -11.28946 | 39126 ft | 481 kts | 15° |
| 2026-04-25 13:44 | 36.43384 | -11.26420 | 39125 ft | 481 kts | 15° |
| 2026-04-25 13:45 | 36.48723 | -11.24301 | 39128 ft | 480 kts | 15° |
| 2026-04-25 13:45 | 36.56121 | -11.21359 | 39133 ft | 480 kts | 15° |
| 2026-04-25 13:46 | 36.62488 | -11.18822 | 39130 ft | 480 kts | 15° |
| 2026-04-25 13:46 | 36.69013 | -11.16218 | 39132 ft | 479 kts | 15° |
| 2026-04-25 13:47 | 36.75361 | -11.13681 | 39132 ft | 480 kts | 15° |
| 2026-04-25 13:47 | 36.81721 | -11.11133 | 39134 ft | 480 kts | 15° |
| 2026-04-25 13:48 | 36.88088 | -11.08579 | 39132 ft | 481 kts | 15° |
| 2026-04-25 13:48 | 36.94457 | -11.06019 | 39128 ft | 480 kts | 15° |
| 2026-04-25 13:49 | 37.00804 | -11.03464 | 39131 ft | 479 kts | 15° |
| 2026-04-25 13:49 | 37.06069 | -11.01341 | 39132 ft | 479 kts | 15° |
| 2026-04-25 13:50 | 37.12410 | -10.98780 | 39136 ft | 478 kts | 15° |
| 2026-04-25 13:50 | 37.19808 | -10.95786 | 39135 ft | 477 kts | 15° |
| 2026-04-25 13:51 | 37.26114 | -10.93229 | 39135 ft | 476 kts | 15° |
| 2026-04-25 13:51 | 37.32374 | -10.90687 | 39136 ft | 476 kts | 15° |
| 2026-04-25 13:52 | 37.37651 | -10.88540 | 39135 ft | 475 kts | 15° |
| 2026-04-25 13:52 | 37.43939 | -10.85978 | 39132 ft | 475 kts | 15° |
| 2026-04-25 13:53 | 37.50225 | -10.83412 | 39130 ft | 474 kts | 15° |
| 2026-04-25 13:53 | 37.56500 | -10.80846 | 39131 ft | 474 kts | 15° |
| 2026-04-25 13:54 | 37.62773 | -10.78277 | 39135 ft | 474 kts | 15° |
| 2026-04-25 13:54 | 37.69000 | -10.75721 | 39139 ft | 473 kts | 15° |
| 2026-04-25 13:55 | 37.75263 | -10.73146 | 39138 ft | 474 kts | 15° |
| 2026-04-25 13:55 | 37.81527 | -10.70567 | 39140 ft | 474 kts | 15° |
| 2026-04-25 13:56 | 37.87793 | -10.67982 | 39142 ft | 474 kts | 15° |
| 2026-04-25 13:56 | 37.94058 | -10.65392 | 39135 ft | 473 kts | 15° |
| 2026-04-25 13:57 | 38.00307 | -10.62805 | 39140 ft | 472 kts | 15° |
| 2026-04-25 13:57 | 38.06547 | -10.60217 | 39140 ft | 473 kts | 15° |
| 2026-04-25 13:58 | 38.12803 | -10.57617 | 39139 ft | 473 kts | 16° |
| 2026-04-25 13:58 | 38.19055 | -10.55015 | 39136 ft | 473 kts | 15° |
| 2026-04-25 13:59 | 38.25304 | -10.52408 | 39140 ft | 473 kts | 16° |
| 2026-04-25 13:59 | 38.31552 | -10.49798 | 39137 ft | 473 kts | 16° |
| 2026-04-25 14:00 | 38.37794 | -10.47185 | 39134 ft | 472 kts | 16° |
| 2026-04-25 14:00 | 38.43986 | -10.44590 | 39138 ft | 471 kts | 16° |
| 2026-04-25 14:01 | 38.50212 | -10.41974 | 39143 ft | 471 kts | 16° |
| 2026-04-25 14:01 | 38.56434 | -10.39355 | 39141 ft | 470 kts | 16° |
| 2026-04-25 14:02 | 38.62652 | -10.36734 | 39132 ft | 471 kts | 16° |
| 2026-04-25 14:02 | 38.68870 | -10.34107 | 39136 ft | 470 kts | 16° |
| 2026-04-25 14:03 | 38.75071 | -10.31484 | 39135 ft | 470 kts | 16° |
| 2026-04-25 14:03 | 38.81280 | -10.28851 | 39126 ft | 469 kts | 16° |
| 2026-04-25 14:04 | 38.87478 | -10.26219 | 39125 ft | 469 kts | 16° |
| 2026-04-25 14:04 | 38.93670 | -10.23584 | 39130 ft | 469 kts | 16° |
| 2026-04-25 14:05 | 38.99868 | -10.20943 | 39134 ft | 469 kts | 16° |
| 2026-04-25 14:05 | 39.06070 | -10.18307 | 39131 ft | 469 kts | 16° |
| 2026-04-25 14:06 | 39.12270 | -10.15668 | 39132 ft | 469 kts | 16° |
| 2026-04-25 14:06 | 39.18469 | -10.13022 | 39133 ft | 469 kts | 16° |
| 2026-04-25 14:07 | 39.24618 | -10.10395 | 39135 ft | 469 kts | 16° |
| 2026-04-25 14:07 | 39.30814 | -10.07743 | 39135 ft | 468 kts | 16° |
| 2026-04-25 14:08 | 39.36991 | -10.05094 | 39135 ft | 468 kts | 16° |
| 2026-04-25 14:08 | 39.43168 | -10.02439 | 39130 ft | 467 kts | 17° |
| 2026-04-25 14:09 | 39.49325 | -9.99789 | 39130 ft | 466 kts | 17° |
| 2026-04-25 14:09 | 39.55470 | -9.97137 | 39136 ft | 466 kts | 17° |
| 2026-04-25 14:10 | 39.61615 | -9.94483 | 39131 ft | 465 kts | 17° |
| 2026-04-25 14:10 | 39.67738 | -9.91832 | 39130 ft | 464 kts | 17° |
| 2026-04-25 14:11 | 39.73877 | -9.89169 | 39124 ft | 465 kts | 17° |
| 2026-04-25 14:11 | 39.80015 | -9.86502 | 39128 ft | 465 kts | 17° |
| 2026-04-25 14:12 | 39.86158 | -9.83827 | 39129 ft | 466 kts | 17° |
| 2026-04-25 14:12 | 39.92303 | -9.81146 | 39133 ft | 466 kts | 17° |
| 2026-04-25 14:13 | 39.98415 | -9.78476 | 39129 ft | 466 kts | 17° |
| 2026-04-25 14:13 | 40.04557 | -9.75786 | 39130 ft | 465 kts | 17° |
| 2026-04-25 14:14 | 40.10697 | -9.73093 | 39129 ft | 466 kts | 17° |
| 2026-04-25 14:14 | 40.16871 | -9.70379 | 39127 ft | 464 kts | 17° |
| 2026-04-25 14:15 | 40.22992 | -9.67684 | 39124 ft | 465 kts | 17° |
| 2026-04-25 14:15 | 40.29118 | -9.64979 | 39125 ft | 464 kts | 17° |
| 2026-04-25 14:16 | 40.35207 | -9.62290 | 39124 ft | 465 kts | 17° |
| 2026-04-25 14:16 | 40.41325 | -9.59577 | 39125 ft | 464 kts | 17° |
| 2026-04-25 14:17 | 40.47452 | -9.56861 | 39121 ft | 465 kts | 17° |
| 2026-04-25 14:17 | 40.53566 | -9.54140 | 39123 ft | 464 kts | 17° |
| 2026-04-25 14:18 | 40.59688 | -9.51416 | 39124 ft | 465 kts | 17° |
| 2026-04-25 14:18 | 40.65812 | -9.48679 | 39123 ft | 464 kts | 17° |
| 2026-04-25 14:19 | 40.71936 | -9.45944 | 39121 ft | 465 kts | 17° |
| 2026-04-25 14:19 | 40.78065 | -9.43194 | 39118 ft | 465 kts | 17° |
| 2026-04-25 14:20 | 40.84196 | -9.40445 | 39120 ft | 465 kts | 17° |
| 2026-04-25 14:20 | 40.90324 | -9.37687 | 39118 ft | 465 kts | 17° |
| 2026-04-25 14:21 | 40.96452 | -9.34925 | 39125 ft | 465 kts | 17° |
| 2026-04-25 14:21 | 41.02571 | -9.32126 | 39119 ft | 466 kts | 17° |
| 2026-04-25 14:22 | 41.08741 | -9.29282 | 39120 ft | 473 kts | 17° |
| 2026-04-25 14:22 | 41.15016 | -9.26397 | 39120 ft | 481 kts | 17° |
| 2026-04-25 14:23 | 41.21380 | -9.23454 | 39120 ft | 487 kts | 17° |
| 2026-04-25 14:23 | 41.27827 | -9.20476 | 39120 ft | 493 kts | 17° |
| 2026-04-25 14:24 | 41.34330 | -9.17459 | 39126 ft | 496 kts | 17° |
| 2026-04-25 14:24 | 41.40850 | -9.14432 | 39119 ft | 497 kts | 17° |
| 2026-04-25 14:25 | 41.47386 | -9.11387 | 39118 ft | 498 kts | 17° |
| 2026-04-25 14:25 | 41.53920 | -9.08340 | 39119 ft | 497 kts | 17° |
| 2026-04-25 14:26 | 41.60456 | -9.05284 | 39115 ft | 498 kts | 18° |
| 2026-04-25 14:26 | 41.66995 | -9.02221 | 39117 ft | 498 kts | 18° |
| 2026-04-25 14:27 | 41.73532 | -8.99150 | 39119 ft | 498 kts | 18° |
| 2026-04-25 14:27 | 41.80073 | -8.96074 | 39116 ft | 498 kts | 18° |
| 2026-04-25 14:28 | 41.86575 | -8.93002 | 39116 ft | 499 kts | 19° |
| 2026-04-25 14:28 | 41.92887 | -8.89075 | 39116 ft | 501 kts | 24° |
| 2026-04-25 14:29 | 41.99170 | -8.85029 | 39110 ft | 500 kts | 24° |
| 2026-04-25 14:29 | 42.05445 | -8.80982 | 39110 ft | 500 kts | 24° |
| 2026-04-25 14:30 | 42.11726 | -8.76920 | 39112 ft | 500 kts | 24° |
| 2026-04-25 14:30 | 42.21136 | -8.70820 | 39109 ft | 500 kts | 24° |
| 2026-04-25 14:31 | 42.27404 | -8.66744 | 39114 ft | 500 kts | 24° |
| 2026-04-25 14:31 | 42.33677 | -8.62658 | 39108 ft | 500 kts | 24° |
| 2026-04-25 14:32 | 42.39940 | -8.58567 | 39108 ft | 500 kts | 24° |
| 2026-04-25 14:32 | 42.46216 | -8.54460 | 39105 ft | 501 kts | 24° |
| 2026-04-25 14:33 | 42.52442 | -8.50376 | 39102 ft | 501 kts | 24° |
| 2026-04-25 14:33 | 42.58712 | -8.46254 | 39113 ft | 501 kts | 24° |
| 2026-04-25 14:34 | 42.64981 | -8.42122 | 39123 ft | 500 kts | 24° |
| 2026-04-25 14:34 | 42.71247 | -8.37985 | 39128 ft | 501 kts | 24° |
| 2026-04-25 14:35 | 42.77510 | -8.33840 | 39136 ft | 500 kts | 24° |
| 2026-04-25 14:35 | 42.83767 | -8.29689 | 39139 ft | 500 kts | 24° |
| 2026-04-25 14:36 | 42.90024 | -8.25529 | 39142 ft | 500 kts | 24° |
| 2026-04-25 14:36 | 42.96281 | -8.21360 | 39138 ft | 500 kts | 24° |
| 2026-04-25 14:37 | 43.02527 | -8.17188 | 39140 ft | 500 kts | 24° |
| 2026-04-25 14:37 | 43.08768 | -8.13010 | 39149 ft | 500 kts | 24° |
| 2026-04-25 14:38 | 43.15016 | -8.08817 | 39152 ft | 500 kts | 24° |
| 2026-04-25 14:38 | 43.20191 | -8.05338 | 39152 ft | 497 kts | 24° |
| 2026-04-25 14:39 | 43.27469 | -8.00433 | 39159 ft | 500 kts | 24° |
| 2026-04-25 14:39 | 43.32650 | -7.96934 | 39160 ft | 499 kts | 24° |
| 2026-04-25 14:40 | 43.38883 | -7.92714 | 39158 ft | 500 kts | 24° |
| 2026-04-25 14:40 | 43.45115 | -7.88486 | 39168 ft | 500 kts | 24° |
| 2026-04-25 14:41 | 43.51356 | -7.84244 | 39171 ft | 501 kts | 24° |
| 2026-04-25 14:41 | 43.57604 | -7.79984 | 39178 ft | 501 kts | 24° |
| 2026-04-25 14:42 | 43.62796 | -7.76439 | 39185 ft | 501 kts | 24° |
| 2026-04-25 14:42 | 43.70100 | -7.71438 | 39196 ft | 501 kts | 25° |
| 2026-04-25 14:43 | 43.76342 | -7.67152 | 39204 ft | 501 kts | 25° |
| 2026-04-25 14:43 | 43.82583 | -7.62859 | 39209 ft | 501 kts | 25° |
| 2026-04-25 14:44 | 43.88818 | -7.58559 | 39203 ft | 500 kts | 25° |
| 2026-04-25 14:44 | 43.95050 | -7.54252 | 39210 ft | 501 kts | 25° |
| 2026-04-25 14:45 | 44.01248 | -7.49957 | 39219 ft | 501 kts | 25° |
| 2026-04-25 14:45 | 44.07483 | -7.45627 | 39221 ft | 501 kts | 25° |
| 2026-04-25 14:46 | 44.13730 | -7.41279 | 39209 ft | 502 kts | 25° |
| 2026-04-25 14:46 | 44.19965 | -7.36927 | 39212 ft | 501 kts | 25° |
| 2026-04-25 14:47 | 44.25144 | -7.33305 | 39213 ft | 501 kts | 25° |
| 2026-04-25 14:47 | 44.32415 | -7.28209 | 39217 ft | 501 kts | 25° |
| 2026-04-25 14:48 | 44.38638 | -7.23836 | 39217 ft | 501 kts | 25° |
| 2026-04-25 14:48 | 44.44864 | -7.19449 | 39218 ft | 501 kts | 25° |
| 2026-04-25 14:49 | 44.51082 | -7.15058 | 39223 ft | 500 kts | 25° |
| 2026-04-25 14:49 | 44.57298 | -7.10657 | 39226 ft | 501 kts | 25° |
| 2026-04-25 14:50 | 44.63512 | -7.06248 | 39225 ft | 501 kts | 25° |
| 2026-04-25 14:50 | 44.69731 | -7.01824 | 39230 ft | 500 kts | 25° |
| 2026-04-25 14:51 | 44.75907 | -6.97421 | 39228 ft | 502 kts | 25° |
| 2026-04-25 14:51 | 44.82138 | -6.92966 | 39227 ft | 502 kts | 26° |
| 2026-04-25 14:52 | 44.87969 | -6.87504 | 39230 ft | 505 kts | 34° |
| 2026-04-25 14:52 | 44.92739 | -6.82686 | 39231 ft | 505 kts | 34° |
| 2026-04-25 14:53 | 44.99383 | -6.75969 | 39231 ft | 505 kts | 34° |
| 2026-04-25 14:53 | 45.05104 | -6.70165 | 39226 ft | 506 kts | 34° |
| 2026-04-25 14:54 | 45.10817 | -6.64356 | 39230 ft | 505 kts | 34° |
| 2026-04-25 14:54 | 45.16526 | -6.58537 | 39232 ft | 506 kts | 34° |
| 2026-04-25 14:55 | 45.22233 | -6.52706 | 39229 ft | 505 kts | 34° |
| 2026-04-25 14:55 | 45.27926 | -6.46873 | 39227 ft | 505 kts | 34° |
| 2026-04-25 14:56 | 45.33609 | -6.41036 | 39229 ft | 504 kts | 34° |
| 2026-04-25 14:56 | 45.39291 | -6.35186 | 39227 ft | 504 kts | 34° |
| 2026-04-25 14:57 | 45.44968 | -6.29326 | 39225 ft | 504 kts | 34° |
| 2026-04-25 14:57 | 45.50648 | -6.23448 | 39228 ft | 505 kts | 34° |
| 2026-04-25 14:58 | 45.56319 | -6.17564 | 39226 ft | 504 kts | 34° |
| 2026-04-25 14:58 | 45.61984 | -6.11672 | 39224 ft | 504 kts | 34° |
| 2026-04-25 14:59 | 45.67642 | -6.05770 | 39222 ft | 504 kts | 34° |
| 2026-04-25 14:59 | 45.73311 | -5.99843 | 39222 ft | 504 kts | 34° |
| 2026-04-25 15:00 | 45.78965 | -5.93917 | 39222 ft | 504 kts | 34° |
| 2026-04-25 15:00 | 45.84586 | -5.88010 | 39221 ft | 505 kts | 34° |
| 2026-04-25 15:01 | 45.90246 | -5.82046 | 39220 ft | 505 kts | 34° |
| 2026-04-25 15:01 | 45.95938 | -5.76034 | 39221 ft | 504 kts | 34° |
| 2026-04-25 15:02 | 46.01543 | -5.70098 | 39219 ft | 504 kts | 34° |
| 2026-04-25 15:02 | 46.07192 | -5.64099 | 39221 ft | 505 kts | 34° |
| 2026-04-25 15:03 | 46.12846 | -5.58080 | 39219 ft | 505 kts | 34° |
| 2026-04-25 15:03 | 46.18493 | -5.52052 | 39212 ft | 505 kts | 34° |
| 2026-04-25 15:04 | 46.24133 | -5.46017 | 39211 ft | 505 kts | 34° |
| 2026-04-25 15:04 | 46.29773 | -5.39965 | 39209 ft | 505 kts | 34° |
| 2026-04-25 15:05 | 46.35406 | -5.33905 | 39209 ft | 505 kts | 34° |
| 2026-04-25 15:06 | 46.43873 | -5.24766 | 39210 ft | 506 kts | 34° |
| 2026-04-25 15:06 | 46.49517 | -5.18654 | 39211 ft | 506 kts | 34° |
| 2026-04-25 15:07 | 46.55158 | -5.12529 | 39208 ft | 506 kts | 34° |
| 2026-04-25 15:07 | 46.60790 | -5.06397 | 39209 ft | 506 kts | 35° |
| 2026-04-25 15:08 | 46.66426 | -5.00246 | 39205 ft | 505 kts | 35° |
| 2026-04-25 15:08 | 46.72045 | -4.94096 | 39207 ft | 506 kts | 35° |
| 2026-04-25 15:09 | 46.77683 | -4.87908 | 39206 ft | 507 kts | 35° |
| 2026-04-25 15:09 | 46.86131 | -4.78606 | 39204 ft | 507 kts | 35° |
| 2026-04-25 15:10 | 46.91769 | -4.72376 | 39203 ft | 508 kts | 35° |
| 2026-04-25 15:11 | 47.00223 | -4.63004 | 39197 ft | 509 kts | 35° |
| 2026-04-25 15:11 | 47.05862 | -4.56731 | 39194 ft | 509 kts | 35° |
| 2026-04-25 15:12 | 47.14322 | -4.47288 | 39192 ft | 509 kts | 35° |
| 2026-04-25 15:12 | 47.18053 | -4.43111 | 39189 ft | 509 kts | 35° |
| 2026-04-25 15:13 | 47.28415 | -4.31472 | 39173 ft | 509 kts | 35° |
| 2026-04-25 15:14 | 47.34015 | -4.25157 | 39172 ft | 510 kts | 35° |
| 2026-04-25 15:14 | 47.39642 | -4.18793 | 39173 ft | 510 kts | 35° |
| 2026-04-25 15:15 | 47.45279 | -4.12402 | 39170 ft | 511 kts | 35° |
| 2026-04-25 15:15 | 47.50912 | -4.05996 | 39175 ft | 511 kts | 36° |
| 2026-04-25 15:16 | 47.56547 | -3.99571 | 39168 ft | 511 kts | 36° |
| 2026-04-25 15:16 | 47.64986 | -3.89915 | 39168 ft | 512 kts | 36° |
| 2026-04-25 15:17 | 47.73431 | -3.80211 | 39160 ft | 512 kts | 36° |
| 2026-04-25 15:18 | 47.79066 | -3.73714 | 39155 ft | 513 kts | 36° |
| 2026-04-25 15:18 | 47.87496 | -3.63958 | 39155 ft | 512 kts | 36° |
| 2026-04-25 15:19 | 47.91266 | -3.59583 | 39147 ft | 513 kts | 36° |
| 2026-04-25 15:19 | 47.98756 | -3.50864 | 39150 ft | 513 kts | 36° |
| 2026-04-25 15:20 | 48.04379 | -3.44297 | 39137 ft | 513 kts | 36° |
| 2026-04-25 15:20 | 48.09995 | -3.37719 | 39146 ft | 513 kts | 36° |
| 2026-04-25 15:21 | 48.15608 | -3.31127 | 39143 ft | 513 kts | 36° |
| 2026-04-25 15:21 | 48.21223 | -3.24512 | 39147 ft | 514 kts | 36° |
| 2026-04-25 15:22 | 48.26840 | -3.17878 | 39152 ft | 514 kts | 36° |
| 2026-04-25 15:22 | 48.32417 | -3.11270 | 39156 ft | 514 kts | 36° |
| 2026-04-25 15:23 | 48.38023 | -3.04610 | 39165 ft | 514 kts | 36° |
| 2026-04-25 15:23 | 48.43632 | -2.97926 | 39163 ft | 514 kts | 36° |
| 2026-04-25 15:24 | 48.49237 | -2.91229 | 39164 ft | 514 kts | 37° |
| 2026-04-25 15:24 | 48.52983 | -2.86741 | 39167 ft | 514 kts | 37° |
| 2026-04-25 15:25 | 48.59488 | -2.78928 | 39170 ft | 514 kts | 37° |
| 2026-04-25 15:25 | 48.66018 | -2.71058 | 39168 ft | 514 kts | 37° |
| 2026-04-25 15:26 | 48.71612 | -2.64294 | 39168 ft | 514 kts | 37° |
| 2026-04-25 15:26 | 48.76250 | -2.58672 | 39171 ft | 514 kts | 37° |
| 2026-04-25 15:27 | 48.81920 | -2.52062 | 39174 ft | 515 kts | 36° |
| 2026-04-25 15:28 | 48.90413 | -2.42075 | 39178 ft | 515 kts | 35° |
| 2026-04-25 15:28 | 48.96090 | -2.35410 | 39178 ft | 516 kts | 36° |
| 2026-04-25 15:29 | 49.01766 | -2.28725 | 39175 ft | 516 kts | 36° |
| 2026-04-25 15:29 | 49.07447 | -2.22024 | 39169 ft | 516 kts | 36° |
| 2026-04-25 15:30 | 49.13115 | -2.15308 | 39167 ft | 516 kts | 36° |
| 2026-04-25 15:30 | 49.18787 | -2.08576 | 39165 ft | 517 kts | 36° |
| 2026-04-25 15:31 | 49.24694 | -2.02430 | 39170 ft | 513 kts | 27° |
| 2026-04-25 15:31 | 49.30947 | -1.97137 | 39173 ft | 514 kts | 27° |
| 2026-04-25 15:32 | 49.37193 | -1.91830 | 39176 ft | 513 kts | 27° |
| 2026-04-25 15:32 | 49.43434 | -1.86511 | 39181 ft | 512 kts | 27° |
| 2026-04-25 15:33 | 49.52739 | -1.78553 | 39192 ft | 512 kts | 27° |
| 2026-04-25 15:33 | 49.58964 | -1.73232 | 39196 ft | 511 kts | 24° |
| 2026-04-25 15:34 | 49.65591 | -1.69314 | 39188 ft | 511 kts | 17° |
| 2026-04-25 15:34 | 49.71158 | -1.66259 | 39192 ft | 511 kts | 17° |
| 2026-04-25 15:35 | 49.82317 | -1.60069 | 39196 ft | 510 kts | 17° |
| 2026-04-25 15:36 | 49.92325 | -1.54499 | 39200 ft | 510 kts | 18° |
| 2026-04-25 15:36 | 49.95652 | -1.52640 | 38833 ft | 507 kts | 18° |
| 2026-04-25 15:36 | 49.98966 | -1.50789 | 38097 ft | 506 kts | 17° |
| 2026-04-25 15:37 | 50.02297 | -1.49122 | 37394 ft | 501 kts | 14° |
| 2026-04-25 15:37 | 50.05618 | -1.47505 | 36711 ft | 500 kts | 15° |
| 2026-04-25 15:37 | 50.08925 | -1.45850 | 36027 ft | 500 kts | 15° |
| 2026-04-25 15:37 | 50.12234 | -1.44226 | 35361 ft | 496 kts | 15° |
| 2026-04-25 15:38 | 50.15557 | -1.42624 | 34724 ft | 505 kts | 15° |
| 2026-04-25 15:38 | 50.18919 | -1.40986 | 34084 ft | 506 kts | 15° |
| 2026-04-25 15:38 | 50.22264 | -1.39330 | 33365 ft | 503 kts | 15° |
| 2026-04-25 15:38 | 50.25584 | -1.37691 | 32662 ft | 498 kts | 15° |
| 2026-04-25 15:39 | 50.28869 | -1.36078 | 31974 ft | 490 kts | 15° |
| 2026-04-25 15:39 | 50.32100 | -1.34486 | 31309 ft | 483 kts | 15° |
| 2026-04-25 15:39 | 50.35282 | -1.32908 | 30674 ft | 477 kts | 15° |
| 2026-04-25 15:39 | 50.38422 | -1.31351 | 30007 ft | 470 kts | 15° |
| 2026-04-25 15:40 | 50.41523 | -1.29815 | 29275 ft | 464 kts | 15° |
| 2026-04-25 15:40 | 50.43552 | -1.28809 | 28803 ft | 460 kts | 15° |
| 2026-04-25 15:40 | 50.47603 | -1.26786 | 27866 ft | 453 kts | 17° |
| 2026-04-25 15:40 | 50.50457 | -1.24741 | 27192 ft | 451 kts | 28° |
| 2026-04-25 15:41 | 50.52969 | -1.21912 | 26508 ft | 448 kts | 37° |
| 2026-04-25 15:41 | 50.55392 | -1.18756 | 25821 ft | 444 kts | 37° |
| 2026-04-25 15:41 | 50.57720 | -1.15687 | 25155 ft | 441 kts | 38° |
| 2026-04-25 15:41 | 50.60087 | -1.12551 | 24418 ft | 438 kts | 38° |
| 2026-04-25 15:42 | 50.62392 | -1.09514 | 23645 ft | 437 kts | 38° |
| 2026-04-25 15:42 | 50.64719 | -1.06451 | 22766 ft | 435 kts | 38° |
| 2026-04-25 15:42 | 50.66844 | -1.03065 | 21911 ft | 434 kts | 49° |
| 2026-04-25 15:42 | 50.68121 | -1.00597 | 21241 ft | 423 kts | 49° |
| 2026-04-25 15:43 | 50.68770 | -0.99352 | 20881 ft | 416 kts | 49° |
| 2026-04-25 15:43 | 50.70574 | -0.95880 | 19875 ft | 404 kts | 49° |
| 2026-04-25 15:43 | 50.72340 | -0.92473 | 18893 ft | 398 kts | 49° |
| 2026-04-25 15:43 | 50.74081 | -0.89112 | 17860 ft | 392 kts | 49° |
| 2026-04-25 15:44 | 50.75769 | -0.85845 | 16783 ft | 376 kts | 49° |
| 2026-04-25 15:44 | 50.77391 | -0.82704 | 15738 ft | 362 kts | 49° |
| 2026-04-25 15:44 | 50.78957 | -0.79671 | 14740 ft | 351 kts | 49° |
| 2026-04-25 15:44 | 50.80452 | -0.76677 | 13742 ft | 343 kts | 56° |
| 2026-04-25 15:45 | 50.81345 | -0.73238 | 13188 ft | 334 kts | 77° |
| 2026-04-25 15:45 | 50.81832 | -0.69578 | 13217 ft | 349 kts | 78° |
| 2026-04-25 15:45 | 50.82265 | -0.65802 | 13210 ft | 347 kts | 79° |
| 2026-04-25 15:45 | 50.82535 | -0.63312 | 13215 ft | 347 kts | 79° |
| 2026-04-25 15:46 | 50.83112 | -0.58281 | 13220 ft | 347 kts | 78° |
| 2026-04-25 15:46 | 50.83558 | -0.54529 | 13190 ft | 344 kts | 78° |
| 2026-04-25 15:46 | 50.83975 | -0.50925 | 13182 ft | 323 kts | 78° |
| 2026-04-25 15:46 | 50.84362 | -0.47527 | 12968 ft | 309 kts | 78° |
| 2026-04-25 15:47 | 50.84748 | -0.44171 | 12426 ft | 309 kts | 79° |
| 2026-04-25 15:47 | 50.85130 | -0.40848 | 11956 ft | 305 kts | 79° |
| 2026-04-25 15:47 | 50.85507 | -0.37555 | 11480 ft | 303 kts | 79° |
| 2026-04-25 15:47 | 50.85878 | -0.34294 | 11022 ft | 300 kts | 79° |
| 2026-04-25 15:48 | 50.86246 | -0.31061 | 10569 ft | 297 kts | 79° |
| 2026-04-25 15:48 | 50.86609 | -0.27855 | 10117 ft | 295 kts | 79° |
| 2026-04-25 15:48 | 50.86969 | -0.24673 | 9604 ft | 292 kts | 79° |
| 2026-04-25 15:48 | 50.87332 | -0.21528 | 9118 ft | 288 kts | 76° |
| 2026-04-25 15:49 | 50.88243 | -0.18785 | 8586 ft | 283 kts | 42° |
| 2026-04-25 15:49 | 50.89938 | -0.17355 | 8102 ft | 278 kts | 8° |
| 2026-04-25 15:49 | 50.91817 | -0.17672 | 7599 ft | 274 kts | 335° |
| 2026-04-25 15:49 | 50.93221 | -0.19620 | 7227 ft | 270 kts | 299° |
| 2026-04-25 15:50 | 50.93846 | -0.22402 | 7226 ft | 270 kts | 284° |
| 2026-04-25 15:50 | 50.94230 | -0.25237 | 7217 ft | 253 kts | 282° |
| 2026-04-25 15:50 | 50.94551 | -0.27965 | 6780 ft | 253 kts | 281° |
| 2026-04-25 15:50 | 50.94861 | -0.30710 | 6366 ft | 252 kts | 281° |
| 2026-04-25 15:51 | 50.95166 | -0.33431 | 5954 ft | 250 kts | 281° |
| 2026-04-25 15:51 | 50.95367 | -0.35228 | 5675 ft | 249 kts | 281° |
| 2026-04-25 15:51 | 50.95761 | -0.38766 | 5167 ft | 247 kts | 281° |
| 2026-04-25 15:51 | 50.96059 | -0.41449 | 4773 ft | 246 kts | 281° |
| 2026-04-25 15:52 | 50.96355 | -0.44109 | 4379 ft | 245 kts | 281° |
| 2026-04-25 15:52 | 50.96726 | -0.46715 | 3965 ft | 242 kts | 295° |
| 2026-04-25 15:52 | 50.97865 | -0.48596 | 3548 ft | 238 kts | 331° |
| 2026-04-25 15:52 | 50.99378 | -0.49666 | 3161 ft | 238 kts | 339° |
| 2026-04-25 15:53 | 51.00904 | -0.50555 | 3038 ft | 226 kts | 341° |
| 2026-04-25 15:53 | 51.02336 | -0.51369 | 3024 ft | 209 kts | 341° |
| 2026-04-25 15:53 | 51.03637 | -0.52101 | 3011 ft | 191 kts | 341° |
| 2026-04-25 15:53 | 51.04875 | -0.52797 | 3011 ft | 188 kts | 341° |
| 2026-04-25 15:54 | 51.06115 | -0.53425 | 2973 ft | 185 kts | 349° |
| 2026-04-25 15:54 | 51.07309 | -0.52861 | 2943 ft | 185 kts | 38° |
| 2026-04-25 15:54 | 51.08153 | -0.51303 | 3010 ft | 187 kts | 51° |
| 2026-04-25 15:54 | 51.08966 | -0.49687 | 3008 ft | 186 kts | 51° |
| 2026-04-25 15:55 | 51.09782 | -0.48078 | 3014 ft | 187 kts | 51° |
| 2026-04-25 15:55 | 51.10551 | -0.46409 | 2992 ft | 187 kts | 57° |
| 2026-04-25 15:55 | 51.11189 | -0.44616 | 2992 ft | 187 kts | 65° |
| 2026-04-25 15:55 | 51.11541 | -0.42617 | 2978 ft | 189 kts | 76° |
| 2026-04-25 15:56 | 51.11845 | -0.40565 | 2762 ft | 189 kts | 77° |
| 2026-04-25 15:56 | 51.12126 | -0.38535 | 2509 ft | 185 kts | 77° |
| 2026-04-25 15:56 | 51.12395 | -0.36576 | 2251 ft | 178 kts | 77° |
| 2026-04-25 15:56 | 51.12657 | -0.34687 | 2020 ft | 171 kts | 77° |
| 2026-04-25 15:57 | 51.12907 | -0.32876 | 1790 ft | 165 kts | 77° |
| 2026-04-25 15:57 | 51.13153 | -0.31099 | 1557 ft | 163 kts | 77° |
| 2026-04-25 15:57 | 51.13394 | -0.29338 | 1344 ft | 162 kts | 78° |
| 2026-04-25 15:57 | 51.13627 | -0.27666 | 1101 ft | 147 kts | 77° |
| 2026-04-25 15:58 | 51.13838 | -0.26120 | 780 ft | 135 kts | 78° |
| 2026-04-25 15:58 | 51.14034 | -0.24717 | 699 ft | 131 kts | 76° |
| 2026-04-25 15:58 | 51.14242 | -0.23296 | 581 ft | 130 kts | 77° |
| 2026-04-25 15:58 | 51.14432 | -0.21876 | 398 ft | 132 kts | 78° |
| 2026-04-25 15:59 | 51.14617 | -0.20456 | 236 ft | 130 kts | 78° |
| 2026-04-25 15:59 | 51.14789 | -0.19206 | 217 ft | 99 kts | 78° |
| 2026-04-25 15:59 | 51.14916 | -0.18296 | 218 ft | 70 kts | 77° |
| 2026-04-25 15:59 | 51.15003 | -0.17668 | 222 ft | 47 kts | 78° |
| 2026-04-25 16:00 | 51.15093 | -0.17266 | 218 ft | 31 kts | 53° |
| 2026-04-25 16:00 | 51.15226 | -0.17184 | 212 ft | 0 kts | 354° |